createdAt,value
2022-10-11T00:01:32.969Z,12.50
2022-10-11T00:04:04.917Z,12.50
2022-10-11T00:06:37.967Z,12.50
2022-10-11T00:09:10.163Z,12.50
2022-10-11T00:11:41.874Z,12.48
2022-10-11T00:14:13.628Z,12.46
2022-10-11T00:16:45.504Z,12.44
2022-10-11T00:19:19.266Z,12.50
2022-10-11T00:21:51.822Z,12.60
2022-10-11T00:24:23.450Z,12.70
2022-10-11T00:26:55.217Z,12.70
2022-10-11T00:29:27.605Z,12.70
2022-10-11T00:31:59.484Z,12.60
2022-10-11T00:34:31.311Z,12.50
2022-10-11T00:37:03.591Z,12.34
2022-10-11T00:39:35.628Z,12.20
2022-10-11T00:42:12.080Z,12.12
2022-10-11T00:44:47.572Z,12.08
2022-10-11T00:47:21.493Z,12.00
2022-10-11T00:49:58.611Z,12.00
2022-10-11T00:52:34.873Z,11.90
2022-10-11T00:55:13.375Z,11.80
2022-10-11T00:57:48.613Z,11.76
2022-10-11T01:00:21.431Z,11.70
2022-10-11T01:02:53.360Z,11.70
2022-10-11T01:05:29.748Z,11.70
2022-10-11T01:08:03.781Z,11.70
2022-10-11T01:10:36.261Z,11.70
2022-10-11T01:13:19.693Z,11.80
2022-10-11T01:16:03.592Z,11.80
2022-10-11T01:18:47.241Z,11.80
2022-10-11T01:21:32.190Z,11.80
2022-10-11T01:24:39.360Z,11.80
2022-10-11T01:27:34.968Z,11.80
2022-10-11T01:30:28.958Z,11.90
2022-10-11T01:33:10.368Z,12.00
2022-10-11T01:35:47.397Z,12.00
2022-10-11T01:38:25.742Z,12.08
2022-10-11T01:41:01.403Z,12.00
2022-10-11T01:43:35.610Z,11.90
2022-10-11T01:46:11.423Z,11.90
2022-10-11T01:48:55.009Z,11.80
2022-10-11T01:51:29.375Z,11.80
2022-10-11T01:54:17.938Z,11.70
2022-10-11T01:57:01.261Z,11.70
2022-10-11T01:59:44.928Z,11.70
2022-10-11T02:02:31.612Z,11.70
2022-10-11T02:05:10.424Z,11.74
2022-10-11T02:07:49.145Z,11.80
2022-10-11T02:10:28.002Z,11.80
2022-10-11T02:13:07.208Z,11.88
2022-10-11T02:15:41.881Z,11.90
2022-10-11T02:18:17.512Z,11.98
2022-10-11T02:20:50.052Z,12.00
2022-10-11T02:23:26.740Z,12.00
2022-10-11T02:25:59.528Z,12.00
2022-10-11T02:28:36.601Z,12.00
2022-10-11T02:31:11.301Z,12.00
2022-10-11T02:33:47.803Z,11.98
2022-10-11T02:36:26.017Z,12.00
2022-10-11T02:39:06.454Z,12.00
2022-10-11T02:41:43.157Z,12.00
2022-10-11T02:44:18.240Z,12.00
2022-10-11T02:46:52.878Z,12.00
2022-10-11T02:49:27.315Z,12.00
2022-10-11T02:52:00.190Z,12.00
2022-10-11T02:54:32.450Z,12.00
2022-10-11T02:57:04.432Z,12.00
2022-10-11T02:59:36.482Z,12.00
2022-10-11T03:02:08.554Z,12.00
2022-10-11T03:04:40.453Z,12.00
2022-10-11T03:07:13.411Z,12.00
2022-10-11T03:09:47.451Z,12.00
2022-10-11T03:12:19.286Z,12.00
2022-10-11T03:14:51.044Z,11.96
2022-10-11T03:17:37.141Z,12.00
2022-10-11T03:20:11.063Z,12.00
2022-10-11T03:22:43.005Z,12.00
2022-10-11T03:25:15.273Z,12.00
2022-10-11T03:27:47.259Z,12.00
2022-10-11T03:30:20.233Z,11.90
2022-10-11T03:32:52.217Z,11.90
2022-10-11T03:35:23.914Z,11.90
2022-10-11T03:37:55.694Z,11.90
2022-10-11T03:40:27.521Z,11.90
2022-10-11T03:42:59.368Z,11.80
2022-10-11T03:45:31.806Z,11.80
2022-10-11T03:48:03.928Z,11.80
2022-10-11T03:50:38.959Z,11.90
2022-10-11T03:53:11.564Z,11.90
2022-10-11T03:55:43.868Z,11.90
2022-10-11T03:58:15.653Z,11.90
2022-10-11T04:01:07.663Z,11.80
2022-10-11T04:03:39.393Z,11.70
2022-10-11T04:06:11.536Z,11.60
2022-10-11T04:08:43.385Z,11.60
2022-10-11T04:11:15.149Z,11.50
2022-10-11T04:13:46.938Z,11.50
2022-10-11T04:16:18.686Z,11.50
2022-10-11T04:18:50.426Z,11.40
2022-10-11T04:21:22.187Z,11.40
2022-10-11T04:23:54.581Z,11.40
2022-10-11T04:26:26.416Z,11.40
2022-10-11T04:28:58.313Z,11.30
2022-10-11T04:31:30.128Z,11.30
2022-10-11T04:34:01.971Z,11.30
2022-10-11T04:36:34.074Z,11.30
2022-10-11T04:39:06.084Z,11.26
2022-10-11T04:41:38.006Z,11.20
2022-10-11T04:44:09.766Z,11.20
2022-10-11T04:46:41.482Z,11.20
2022-10-11T04:49:13.173Z,11.20
2022-10-11T04:51:44.962Z,11.28
2022-10-11T04:54:16.864Z,11.30
2022-10-11T04:56:48.751Z,11.30
2022-10-11T04:59:20.494Z,11.36
2022-10-11T05:01:52.501Z,11.40
2022-10-11T05:04:24.307Z,11.40
2022-10-11T05:06:56.156Z,11.40
2022-10-11T05:09:28.062Z,11.46
2022-10-11T05:11:59.821Z,11.40
2022-10-11T05:14:31.906Z,11.40
2022-10-11T05:17:03.910Z,11.40
2022-10-11T05:19:35.707Z,11.40
2022-10-11T05:22:07.386Z,11.38
2022-10-11T05:24:39.211Z,11.30
2022-10-11T05:27:11.029Z,11.30
2022-10-11T05:29:42.787Z,11.30
2022-10-11T05:32:14.635Z,11.30
2022-10-11T05:34:46.445Z,11.30
2022-10-11T05:37:18.137Z,11.30
2022-10-11T05:39:50.640Z,11.30
2022-10-11T05:42:22.761Z,11.30
2022-10-11T05:44:55.042Z,11.40
2022-10-11T05:47:29.259Z,11.50
2022-10-11T05:50:01.166Z,11.66
2022-10-11T05:52:33.124Z,11.80
2022-10-11T05:55:05.902Z,11.84
2022-10-11T05:57:37.686Z,11.90
2022-10-11T06:00:12.820Z,11.90
2022-10-11T06:02:48.078Z,11.90
2022-10-11T06:05:20.867Z,12.00
2022-10-11T06:07:54.094Z,12.10
2022-10-11T06:10:42.570Z,12.20
2022-10-11T06:13:14.537Z,12.30
2022-10-11T06:15:47.906Z,12.40
2022-10-11T06:18:19.769Z,12.44
2022-10-11T06:20:53.493Z,12.50
2022-10-11T06:23:25.312Z,12.58
2022-10-11T06:26:01.414Z,12.60
2022-10-11T06:28:33.891Z,12.70
2022-10-11T06:31:07.906Z,12.70
2022-10-11T06:33:40.104Z,12.80
2022-10-11T06:36:14.784Z,12.90
2022-10-11T06:38:48.355Z,13.00
2022-10-11T06:41:21.938Z,13.10
2022-10-11T06:43:54.523Z,13.20
2022-10-11T06:46:36.934Z,13.28
2022-10-11T06:49:09.296Z,13.30
2022-10-11T06:51:42.654Z,13.30
2022-10-11T06:54:14.753Z,13.30
2022-10-11T06:56:46.884Z,13.20
2022-10-11T06:59:19.195Z,13.20
2022-10-11T07:01:51.493Z,13.10
2022-10-11T07:04:23.462Z,13.10
2022-10-11T07:06:55.310Z,13.00
2022-10-11T07:09:27.252Z,12.90
2022-10-11T07:11:58.857Z,12.90
2022-10-11T07:14:31.390Z,12.90
2022-10-11T07:17:03.236Z,12.90
2022-10-11T07:19:36.124Z,13.00
2022-10-11T07:22:07.916Z,13.12
2022-10-11T07:24:39.681Z,13.24
2022-10-11T07:27:11.435Z,13.34
2022-10-11T07:29:43.399Z,13.50
2022-10-11T07:32:16.464Z,13.80
2022-10-11T07:34:48.759Z,14.10
2022-10-11T07:37:20.620Z,14.30
2022-10-11T07:39:53.331Z,14.40
2022-10-11T07:42:25.177Z,14.40
2022-10-11T07:44:56.955Z,14.30
2022-10-11T07:47:28.750Z,14.30
2022-10-11T07:50:08.787Z,14.30
2022-10-11T07:52:40.687Z,14.40
2022-10-11T07:55:12.831Z,14.40
2022-10-11T07:57:44.545Z,14.50
2022-10-11T08:00:17.568Z,14.60
2022-10-11T08:02:49.409Z,14.70
2022-10-11T08:05:21.338Z,14.90
2022-10-11T08:07:53.178Z,15.00
2022-10-11T08:10:25.264Z,15.00
2022-10-11T08:13:01.951Z,15.10
2022-10-11T08:15:36.070Z,15.18
2022-10-11T08:18:08.028Z,15.20
2022-10-11T08:20:42.301Z,15.24
2022-10-11T08:23:14.050Z,15.28
2022-10-11T08:25:48.107Z,15.34
2022-10-11T08:28:20.948Z,15.40
2022-10-11T08:30:54.519Z,15.40
2022-10-11T08:33:27.940Z,15.40
2022-10-11T08:36:00.290Z,15.40
2022-10-11T08:38:32.616Z,15.50
2022-10-11T08:41:04.901Z,15.60
2022-10-11T08:43:48.133Z,15.70
2022-10-11T08:46:27.022Z,15.70
2022-10-11T08:49:00.994Z,15.70
2022-10-11T08:51:40.951Z,15.80
2022-10-11T08:54:18.879Z,15.90
2022-10-11T08:56:52.253Z,15.90
2022-10-11T08:59:33.887Z,15.90
2022-10-11T09:02:18.638Z,15.90
2022-10-11T09:04:54.805Z,15.90
2022-10-11T09:07:38.105Z,15.86
2022-10-11T09:10:38.738Z,15.80
2022-10-11T09:13:31.285Z,15.80
2022-10-11T09:16:11.534Z,15.80
2022-10-11T09:18:58.886Z,15.80
2022-10-11T09:21:37.063Z,15.82
2022-10-11T09:24:23.103Z,15.92
2022-10-11T09:26:59.537Z,16.10
2022-10-11T09:29:48.968Z,16.28
2022-10-11T09:32:22.003Z,16.30
2022-10-11T09:35:01.784Z,16.30
2022-10-11T09:37:38.719Z,16.20
2022-10-11T09:40:32.073Z,16.22
2022-10-11T09:43:04.079Z,16.20
2022-10-11T09:45:36.496Z,16.20
2022-10-11T09:48:10.417Z,16.30
2022-10-11T09:50:42.655Z,16.48
2022-10-11T09:53:14.534Z,16.60
2022-10-11T09:55:53.400Z,16.60
2022-10-11T09:58:31.703Z,16.58
2022-10-11T10:01:08.251Z,16.50
2022-10-11T10:03:45.172Z,16.50
2022-10-11T10:06:24.466Z,16.40
2022-10-11T10:08:56.347Z,16.50
2022-10-11T10:11:37.005Z,16.70
2022-10-11T10:14:19.659Z,16.92
2022-10-11T10:16:59.172Z,17.10
2022-10-11T10:19:32.670Z,17.10
2022-10-11T10:22:04.677Z,17.00
2022-10-11T10:24:41.766Z,16.90
2022-10-11T10:27:22.182Z,16.90
2022-10-11T10:30:20.023Z,16.90
2022-10-11T10:32:56.725Z,16.90
2022-10-11T10:35:37.539Z,17.00
2022-10-11T10:38:19.127Z,17.00
2022-10-11T10:40:58.222Z,16.90
2022-10-11T10:43:34.679Z,16.90
2022-10-11T10:46:26.626Z,16.90
2022-10-11T10:49:41.593Z,16.90
2022-10-11T10:52:13.446Z,16.90
2022-10-11T10:54:54.942Z,16.90
2022-10-11T10:57:34.606Z,16.90
2022-10-11T11:00:14.559Z,16.90
2022-10-11T11:02:55.923Z,17.00
2022-10-11T11:05:40.908Z,17.10
2022-10-11T11:08:17.246Z,17.20
2022-10-11T11:10:57.071Z,17.40
2022-10-11T11:13:38.487Z,17.50
2022-10-11T11:16:20.860Z,17.70
2022-10-11T11:18:59.384Z,17.90
2022-10-11T11:21:42.410Z,18.10
2022-10-11T11:24:26.274Z,18.40
2022-10-11T11:27:05.539Z,18.74
2022-10-11T11:29:55.223Z,19.00
2022-10-11T11:32:35.813Z,18.92
2022-10-11T11:35:15.805Z,18.76
2022-10-11T11:37:55.542Z,18.80
2022-10-11T11:40:35.933Z,19.00
2022-10-11T11:43:13.851Z,19.20
2022-10-11T11:45:52.435Z,19.20
2022-10-11T11:48:26.399Z,20.90
2022-10-11T11:51:06.771Z,23.80
2022-10-11T11:53:52.516Z,25.60
2022-10-11T11:56:43.345Z,26.00
2022-10-11T11:59:21.790Z,26.58
2022-10-11T12:02:01.991Z,25.92
2022-10-11T12:04:37.672Z,27.54
2022-10-11T12:07:17.378Z,27.54
2022-10-11T12:09:54.505Z,28.00
2022-10-11T12:12:34.049Z,30.46
2022-10-11T12:15:21.873Z,32.34
2022-10-11T12:18:17.806Z,33.98
2022-10-11T12:21:01.667Z,35.30
2022-10-11T12:23:48.295Z,36.30
2022-10-11T12:26:41.029Z,37.28
2022-10-11T12:29:47.090Z,37.98
2022-10-11T12:32:52.060Z,38.50
2022-10-11T12:35:57.282Z,38.96
2022-10-11T12:38:30.448Z,39.58
2022-10-11T12:41:22.978Z,39.82
2022-10-11T12:44:23.748Z,40.16
2022-10-11T12:47:22.871Z,40.74
2022-10-11T12:50:11.391Z,41.00
2022-10-11T12:52:55.441Z,41.00
2022-10-11T12:55:46.224Z,40.90
2022-10-11T12:58:30.310Z,41.00
2022-10-11T13:01:23.244Z,41.06
2022-10-11T13:04:01.895Z,40.10
2022-10-11T13:06:38.197Z,38.82
2022-10-11T13:09:21.886Z,37.86
2022-10-11T13:11:56.318Z,34.90
2022-10-11T13:14:30.548Z,32.00
2022-10-11T13:17:09.783Z,30.22
2022-10-11T13:19:42.757Z,30.10
2022-10-11T13:22:21.677Z,32.34
2022-10-11T13:27:47.251Z,32.32
2022-10-11T13:30:25.365Z,30.90
2022-10-11T13:32:57.532Z,30.72
2022-10-11T13:35:33.593Z,31.52
2022-10-11T13:38:09.309Z,33.22
2022-10-11T13:40:41.383Z,34.56
2022-10-11T13:43:16.210Z,35.42
2022-10-11T13:45:48.261Z,36.44
2022-10-11T13:48:20.260Z,37.36
2022-10-11T13:51:09.595Z,37.86
2022-10-11T13:53:59.714Z,37.72
2022-10-11T13:56:34.084Z,38.40
2022-10-11T13:59:06.669Z,38.50
2022-10-11T14:01:46.076Z,38.70
2022-10-11T14:04:19.570Z,38.98
2022-10-11T14:06:58.251Z,39.20
2022-10-11T14:09:32.836Z,39.10
2022-10-11T14:12:35.569Z,39.00
2022-10-11T14:15:24.518Z,38.80
2022-10-11T14:18:00.350Z,38.80
2022-10-11T14:20:42.275Z,38.70
2022-10-11T14:23:14.775Z,38.58
2022-10-11T14:25:46.833Z,38.00
2022-10-11T14:28:18.737Z,37.76
2022-10-11T14:30:50.863Z,37.22
2022-10-11T14:33:22.880Z,36.28
2022-10-11T14:35:54.746Z,35.84
2022-10-11T14:38:36.561Z,34.80
2022-10-11T14:41:08.766Z,32.82
2022-10-11T14:43:50.703Z,30.48
2022-10-11T14:49:20.168Z,26.92
2022-10-11T14:51:54.072Z,25.72
2022-10-11T14:54:27.905Z,24.58
2022-10-11T14:57:02.095Z,23.56
2022-10-11T14:59:38.179Z,22.62
2022-10-11T15:02:12.428Z,21.84
2022-10-11T15:04:44.545Z,21.28
2022-10-11T15:07:16.481Z,20.76
2022-10-11T15:09:48.389Z,20.30
2022-10-11T15:12:20.328Z,19.90
2022-10-11T15:14:52.087Z,19.50
2022-10-11T15:17:23.956Z,19.20
2022-10-11T15:19:55.663Z,18.88
2022-10-11T15:22:27.487Z,18.58
2022-10-11T15:25:00.333Z,18.30
2022-10-11T16:32:28.609Z,14.62
2022-10-11T16:35:00.289Z,14.20
2022-10-11T16:37:34.327Z,13.90
2022-10-11T16:40:06.974Z,13.60
2022-10-11T16:42:40.369Z,13.30
2022-10-11T16:45:14.135Z,13.10
2022-10-11T16:47:46.106Z,12.90
2022-10-11T16:50:18.382Z,12.78
2022-10-11T16:52:50.191Z,12.60
2022-10-11T16:55:21.952Z,12.40
2022-10-11T16:57:53.715Z,12.22
2022-10-11T17:00:25.645Z,12.10
2022-10-11T17:02:57.499Z,12.00
2022-10-11T17:05:29.296Z,11.90
2022-10-11T17:08:01.174Z,11.80
2022-10-11T17:10:39.606Z,11.70
2022-10-11T17:13:11.430Z,11.60
2022-10-11T17:15:43.189Z,11.50
2022-10-11T17:18:14.810Z,11.40
2022-10-11T17:20:46.959Z,11.38
2022-10-11T17:23:18.781Z,11.30
2022-10-11T17:25:50.468Z,11.10
2022-10-11T17:28:22.302Z,11.02
2022-10-11T17:30:58.817Z,10.92
2022-10-11T17:33:31.403Z,10.80
2022-10-11T17:36:12.945Z,10.72
2022-10-11T17:38:45.099Z,10.60
2022-10-11T17:41:16.831Z,10.60
2022-10-11T17:43:48.940Z,10.50
2022-10-11T17:46:22.580Z,10.48
2022-10-11T17:48:55.673Z,10.40
2022-10-11T17:51:27.781Z,10.30
2022-10-11T17:53:59.776Z,10.20
2022-10-11T17:56:37.424Z,10.20
2022-10-11T17:59:15.703Z,10.10
2022-10-11T18:01:48.394Z,10.10
2022-10-11T18:04:22.230Z,10.00
2022-10-11T18:06:54.422Z,10.00
2022-10-11T18:09:27.217Z,9.90
2022-10-11T18:11:59.990Z,9.90
2022-10-11T18:14:32.059Z,9.80
2022-10-11T18:17:04.805Z,9.80
2022-10-11T18:19:37.619Z,9.72
2022-10-11T18:22:10.641Z,9.70
2022-10-11T18:24:42.494Z,9.70
2022-10-11T18:27:14.403Z,9.60
2022-10-11T18:29:46.529Z,9.60
2022-10-11T18:32:18.530Z,9.60
2022-10-11T18:34:50.389Z,9.50
2022-10-11T18:37:22.351Z,9.42
2022-10-11T18:39:54.647Z,9.40
2022-10-11T18:42:26.584Z,9.40
2022-10-11T18:44:58.453Z,9.40
2022-10-11T18:47:30.739Z,9.40
2022-10-11T18:50:02.494Z,9.40
2022-10-11T18:52:34.265Z,9.34
2022-10-11T18:55:07.196Z,9.30
2022-10-11T18:57:39.150Z,9.20
2022-10-11T19:00:37.747Z,9.20
2022-10-11T19:03:09.583Z,9.20
2022-10-11T19:05:43.325Z,9.30
2022-10-11T19:08:16.129Z,9.24
2022-10-11T19:10:48.112Z,9.14
2022-10-11T19:13:19.975Z,9.10
2022-10-11T19:15:51.829Z,9.10
2022-10-11T19:18:23.814Z,9.10
2022-10-11T19:20:56.953Z,9.02
2022-10-11T19:23:32.368Z,9.06
2022-10-11T19:26:04.929Z,9.10
2022-10-11T19:28:37.372Z,9.06
2022-10-11T19:31:13.004Z,9.10
2022-10-11T19:33:45.381Z,9.00
2022-10-11T19:36:19.929Z,8.92
2022-10-11T19:38:56.601Z,8.90
2022-10-11T19:41:29.630Z,8.90
2022-10-11T19:44:04.333Z,8.90
2022-10-11T19:46:51.070Z,8.80
2022-10-11T19:49:25.925Z,8.78
2022-10-11T19:51:59.463Z,8.70
2022-10-11T19:54:33.184Z,8.62
2022-10-11T19:57:05.062Z,8.60
2022-10-11T19:59:36.995Z,8.50
2022-10-11T20:02:10.748Z,8.50
2022-10-11T20:04:52.820Z,8.40
2022-10-11T20:07:25.181Z,8.30
2022-10-11T20:09:57.049Z,8.20
2022-10-11T20:12:29.653Z,8.10
2022-10-11T20:15:01.686Z,8.08
2022-10-11T20:17:47.445Z,8.00
2022-10-11T20:20:20.414Z,7.90
2022-10-11T20:22:53.687Z,7.90
2022-10-11T20:25:25.840Z,7.88
2022-10-11T20:27:57.663Z,7.90
2022-10-11T20:30:29.630Z,7.90
2022-10-11T20:33:01.698Z,7.90
2022-10-11T20:35:33.453Z,8.00
2022-10-11T20:38:05.544Z,8.10
2022-10-11T20:40:40.468Z,8.20
2022-10-11T20:43:14.413Z,8.20
2022-10-11T20:45:47.435Z,8.10
2022-10-11T20:48:19.165Z,8.10
2022-10-11T20:50:51.098Z,8.10
2022-10-11T20:53:23.216Z,8.00
2022-10-11T20:55:55.509Z,8.00
2022-10-11T20:58:30.853Z,7.90
2022-10-11T21:01:08.283Z,7.86
2022-10-11T21:03:41.452Z,7.80
2022-10-11T21:06:13.767Z,7.70
2022-10-11T21:08:45.975Z,7.60
2022-10-11T21:11:17.893Z,7.50
2022-10-11T21:13:59.116Z,7.48
2022-10-11T21:16:31.800Z,7.40
2022-10-11T21:19:08.904Z,7.36
2022-10-11T21:21:40.894Z,7.30
2022-10-11T21:24:12.831Z,7.40
2022-10-11T21:26:44.637Z,7.40
2022-10-11T21:29:16.564Z,7.42
2022-10-11T21:31:48.271Z,7.44
2022-10-11T21:34:19.951Z,7.42
2022-10-11T21:36:51.604Z,7.50
2022-10-11T21:39:23.403Z,7.50
2022-10-11T21:41:55.308Z,7.40
2022-10-11T21:44:27.103Z,7.40
2022-10-11T21:47:07.145Z,7.30
2022-10-11T21:49:40.378Z,7.30
2022-10-11T21:52:17.374Z,7.30
2022-10-11T21:54:49.390Z,7.20
2022-10-11T21:57:21.481Z,7.20
2022-10-11T21:59:54.412Z,7.20
2022-10-11T22:02:26.162Z,7.20
2022-10-11T22:04:57.981Z,7.10
2022-10-11T22:07:29.788Z,7.00
2022-10-11T22:10:01.589Z,7.00
2022-10-11T22:12:33.573Z,6.90
2022-10-11T22:15:07.063Z,6.80
2022-10-11T22:17:38.819Z,6.80
2022-10-11T22:20:11.775Z,6.70
2022-10-11T22:22:43.611Z,6.66
2022-10-11T22:25:15.454Z,6.60
2022-10-11T22:27:47.435Z,6.60
2022-10-11T22:30:19.711Z,6.50
2022-10-11T22:33:01.551Z,6.50
2022-10-11T22:35:37.341Z,6.50
2022-10-11T22:38:09.682Z,6.46
2022-10-11T22:40:43.302Z,6.40
2022-10-11T22:43:15.078Z,6.40
2022-10-11T22:45:47.585Z,6.40
2022-10-11T22:48:19.424Z,6.30
2022-10-11T22:50:51.345Z,6.30
2022-10-11T22:53:23.827Z,6.30
2022-10-11T22:55:55.612Z,6.30
2022-10-11T22:58:27.414Z,6.30
2022-10-11T23:00:59.144Z,6.20
2022-10-11T23:03:30.992Z,6.20
2022-10-11T23:06:02.812Z,6.20
2022-10-11T23:08:34.659Z,6.18
2022-10-11T23:11:07.856Z,6.12
2022-10-11T23:13:39.672Z,6.10
2022-10-11T23:16:13.505Z,6.10
2022-10-11T23:18:45.480Z,6.10
2022-10-11T23:21:17.260Z,6.10
2022-10-11T23:23:49.316Z,6.12
2022-10-11T23:26:21.376Z,6.20
2022-10-11T23:28:56.100Z,6.20
2022-10-11T23:31:27.819Z,6.30
2022-10-11T23:33:59.625Z,6.30
2022-10-11T23:36:31.391Z,6.24
2022-10-11T23:39:03.100Z,6.20
2022-10-11T23:41:34.903Z,6.20
2022-10-11T23:44:06.732Z,6.12
2022-10-11T23:46:38.460Z,6.10
2022-10-11T23:49:10.100Z,6.10
2022-10-11T23:51:42.052Z,6.00
2022-10-11T23:54:14.053Z,6.00
2022-10-11T23:56:45.857Z,5.90
2022-10-11T23:59:17.656Z,5.90
